sensor_id;sensor_type;location;lat;lon;timestamp;P1;durP1;ratioP1;P2;durP2;ratioP2
25497;SDS011;13406;53.380;7.226;2023-09-07T00:01:24;3.23;;;1.93;;
25497;SDS011;13406;53.380;7.226;2023-09-07T00:03:50;3.70;;;1.90;;
25497;SDS011;13406;53.380;7.226;2023-09-07T00:06:15;3.80;;;1.60;;
25497;SDS011;13406;53.380;7.226;2023-09-07T00:08:41;3.40;;;1.60;;
25497;SDS011;13406;53.380;7.226;2023-09-07T00:11:06;5.07;;;1.50;;
25497;SDS011;13406;53.380;7.226;2023-09-07T00:13:33;3.10;;;1.50;;
25497;SDS011;13406;53.380;7.226;2023-09-07T00:15:59;3.83;;;2.07;;
25497;SDS011;13406;53.380;7.226;2023-09-07T00:18:28;3.47;;;1.60;;
25497;SDS011;13406;53.380;7.226;2023-09-07T00:20:54;3.33;;;1.90;;
25497;SDS011;13406;53.380;7.226;2023-09-07T00:23:19;3.00;;;1.70;;
25497;SDS011;13406;53.380;7.226;2023-09-07T00:25:45;4.33;;;1.70;;
25497;SDS011;13406;53.380;7.226;2023-09-07T00:28:11;3.07;;;1.47;;
25497;SDS011;13406;53.380;7.226;2023-09-07T00:30:37;4.00;;;1.60;;
25497;SDS011;13406;53.380;7.226;2023-09-07T00:33:02;3.20;;;1.57;;
25497;SDS011;13406;53.380;7.226;2023-09-07T00:35:28;2.80;;;1.63;;
25497;SDS011;13406;53.380;7.226;2023-09-07T00:37:53;2.67;;;1.50;;
25497;SDS011;13406;53.380;7.226;2023-09-07T00:40:19;2.60;;;1.40;;
25497;SDS011;13406;53.380;7.226;2023-09-07T00:42:45;4.93;;;1.73;;
25497;SDS011;13406;53.380;7.226;2023-09-07T00:45:10;3.30;;;1.60;;
25497;SDS011;13406;53.380;7.226;2023-09-07T00:47:36;4.13;;;1.77;;
25497;SDS011;13406;53.380;7.226;2023-09-07T00:50:03;3.50;;;1.80;;
25497;SDS011;13406;53.380;7.226;2023-09-07T00:52:30;3.63;;;1.60;;
25497;SDS011;13406;53.380;7.226;2023-09-07T00:54:56;4.30;;;2.00;;
25497;SDS011;13406;53.380;7.226;2023-09-07T00:57:21;3.70;;;1.70;;
25497;SDS011;13406;53.380;7.226;2023-09-07T00:59:47;3.27;;;1.73;;
25497;SDS011;13406;53.380;7.226;2023-09-07T01:02:12;2.90;;;1.60;;
25497;SDS011;13406;53.380;7.226;2023-09-07T01:04:38;3.53;;;1.53;;
25497;SDS011;13406;53.380;7.226;2023-09-07T01:07:08;2.77;;;1.57;;
25497;SDS011;13406;53.380;7.226;2023-09-07T01:09:40;3.23;;;1.90;;
25497;SDS011;13406;53.380;7.226;2023-09-07T01:12:07;2.93;;;1.77;;
25497;SDS011;13406;53.380;7.226;2023-09-07T01:14:36;3.20;;;1.80;;
25497;SDS011;13406;53.380;7.226;2023-09-07T01:17:02;3.63;;;2.07;;
25497;SDS011;13406;53.380;7.226;2023-09-07T01:19:28;3.50;;;2.07;;
25497;SDS011;13406;53.380;7.226;2023-09-07T01:21:54;4.67;;;1.80;;
25497;SDS011;13406;53.380;7.226;2023-09-07T01:24:20;3.70;;;1.77;;
25497;SDS011;13406;53.380;7.226;2023-09-07T01:26:46;3.63;;;1.90;;
25497;SDS011;13406;53.380;7.226;2023-09-07T01:29:14;5.23;;;2.20;;
25497;SDS011;13406;53.380;7.226;2023-09-07T01:31:42;3.50;;;2.10;;
25497;SDS011;13406;53.380;7.226;2023-09-07T01:34:07;4.50;;;2.07;;
25497;SDS011;13406;53.380;7.226;2023-09-07T01:36:33;4.53;;;1.73;;
25497;SDS011;13406;53.380;7.226;2023-09-07T01:39:00;4.47;;;2.00;;
25497;SDS011;13406;53.380;7.226;2023-09-07T01:41:26;4.80;;;1.70;;
25497;SDS011;13406;53.380;7.226;2023-09-07T01:43:52;4.07;;;2.13;;
25497;SDS011;13406;53.380;7.226;2023-09-07T01:46:17;3.50;;;2.00;;
25497;SDS011;13406;53.380;7.226;2023-09-07T01:48:42;3.70;;;1.80;;
25497;SDS011;13406;53.380;7.226;2023-09-07T01:51:08;4.47;;;2.40;;
25497;SDS011;13406;53.380;7.226;2023-09-07T01:53:34;4.10;;;1.93;;
25497;SDS011;13406;53.380;7.226;2023-09-07T01:55:59;5.27;;;2.63;;
25497;SDS011;13406;53.380;7.226;2023-09-07T01:58:25;3.90;;;2.40;;
25497;SDS011;13406;53.380;7.226;2023-09-07T02:00:52;6.60;;;2.23;;
25497;SDS011;13406;53.380;7.226;2023-09-07T02:03:21;4.50;;;2.20;;
25497;SDS011;13406;53.380;7.226;2023-09-07T02:05:47;6.90;;;2.20;;
25497;SDS011;13406;53.380;7.226;2023-09-07T02:08:12;3.93;;;2.10;;
25497;SDS011;13406;53.380;7.226;2023-09-07T02:10:38;3.33;;;1.97;;
25497;SDS011;13406;53.380;7.226;2023-09-07T02:13:04;3.00;;;1.83;;
25497;SDS011;13406;53.380;7.226;2023-09-07T02:15:29;4.17;;;2.10;;
25497;SDS011;13406;53.380;7.226;2023-09-07T02:17:55;3.60;;;2.20;;
25497;SDS011;13406;53.380;7.226;2023-09-07T02:20:20;4.73;;;2.50;;
25497;SDS011;13406;53.380;7.226;2023-09-07T02:22:46;5.40;;;2.50;;
25497;SDS011;13406;53.380;7.226;2023-09-07T02:25:12;5.47;;;2.23;;
25497;SDS011;13406;53.380;7.226;2023-09-07T02:27:37;4.20;;;2.60;;
25497;SDS011;13406;53.380;7.226;2023-09-07T02:30:03;3.67;;;2.20;;
25497;SDS011;13406;53.380;7.226;2023-09-07T02:32:29;3.47;;;1.70;;
25497;SDS011;13406;53.380;7.226;2023-09-07T02:34:54;3.17;;;1.67;;
25497;SDS011;13406;53.380;7.226;2023-09-07T02:37:20;3.57;;;1.80;;
25497;SDS011;13406;53.380;7.226;2023-09-07T02:39:45;3.60;;;1.93;;
25497;SDS011;13406;53.380;7.226;2023-09-07T02:42:11;4.00;;;2.30;;
25497;SDS011;13406;53.380;7.226;2023-09-07T02:44:36;3.67;;;2.10;;
25497;SDS011;13406;53.380;7.226;2023-09-07T02:47:03;4.33;;;2.20;;
25497;SDS011;13406;53.380;7.226;2023-09-07T02:49:28;4.40;;;2.40;;
25497;SDS011;13406;53.380;7.226;2023-09-07T02:51:54;4.20;;;2.50;;
25497;SDS011;13406;53.380;7.226;2023-09-07T02:54:19;4.00;;;2.33;;
25497;SDS011;13406;53.380;7.226;2023-09-07T02:56:45;3.30;;;2.10;;
25497;SDS011;13406;53.380;7.226;2023-09-07T02:59:10;3.47;;;1.93;;
25497;SDS011;13406;53.380;7.226;2023-09-07T03:01:37;4.50;;;2.30;;
25497;SDS011;13406;53.380;7.226;2023-09-07T03:04:04;3.97;;;2.37;;
25497;SDS011;13406;53.380;7.226;2023-09-07T03:06:30;3.80;;;2.00;;
25497;SDS011;13406;53.380;7.226;2023-09-07T03:08:55;4.40;;;2.30;;
25497;SDS011;13406;53.380;7.226;2023-09-07T03:11:22;4.40;;;2.70;;
25497;SDS011;13406;53.380;7.226;2023-09-07T03:13:47;6.00;;;2.10;;
25497;SDS011;13406;53.380;7.226;2023-09-07T03:16:12;3.80;;;2.50;;
25497;SDS011;13406;53.380;7.226;2023-09-07T03:18:38;3.73;;;2.50;;
25497;SDS011;13406;53.380;7.226;2023-09-07T03:21:03;4.97;;;2.73;;
25497;SDS011;13406;53.380;7.226;2023-09-07T03:23:29;6.43;;;2.57;;
25497;SDS011;13406;53.380;7.226;2023-09-07T03:25:57;5.47;;;2.63;;
25497;SDS011;13406;53.380;7.226;2023-09-07T03:28:23;3.43;;;2.30;;
25497;SDS011;13406;53.380;7.226;2023-09-07T03:30:50;3.90;;;2.40;;
25497;SDS011;13406;53.380;7.226;2023-09-07T03:33:16;4.70;;;2.17;;
25497;SDS011;13406;53.380;7.226;2023-09-07T03:35:41;4.00;;;2.70;;
25497;SDS011;13406;53.380;7.226;2023-09-07T03:38:07;4.03;;;2.30;;
25497;SDS011;13406;53.380;7.226;2023-09-07T03:40:32;3.53;;;2.03;;
25497;SDS011;13406;53.380;7.226;2023-09-07T03:42:57;6.80;;;2.80;;
25497;SDS011;13406;53.380;7.226;2023-09-07T03:45:23;4.10;;;2.53;;
25497;SDS011;13406;53.380;7.226;2023-09-07T03:47:48;4.17;;;3.03;;
25497;SDS011;13406;53.380;7.226;2023-09-07T03:50:14;4.47;;;2.70;;
25497;SDS011;13406;53.380;7.226;2023-09-07T03:52:40;4.30;;;2.77;;
25497;SDS011;13406;53.380;7.226;2023-09-07T03:55:05;4.30;;;2.80;;
25497;SDS011;13406;53.380;7.226;2023-09-07T03:57:31;4.37;;;3.20;;
25497;SDS011;13406;53.380;7.226;2023-09-07T03:59:57;4.53;;;3.00;;
25497;SDS011;13406;53.380;7.226;2023-09-07T04:02:25;4.00;;;2.67;;
25497;SDS011;13406;53.380;7.226;2023-09-07T04:04:51;4.10;;;2.63;;
25497;SDS011;13406;53.380;7.226;2023-09-07T04:07:18;7.30;;;2.63;;
25497;SDS011;13406;53.380;7.226;2023-09-07T04:09:44;4.43;;;2.77;;
25497;SDS011;13406;53.380;7.226;2023-09-07T04:12:10;5.87;;;2.93;;
25497;SDS011;13406;53.380;7.226;2023-09-07T04:14:35;4.17;;;2.57;;
25497;SDS011;13406;53.380;7.226;2023-09-07T04:17:01;4.60;;;3.00;;
25497;SDS011;13406;53.380;7.226;2023-09-07T04:19:27;6.90;;;3.13;;
25497;SDS011;13406;53.380;7.226;2023-09-07T04:21:53;11.33;;;3.50;;
25497;SDS011;13406;53.380;7.226;2023-09-07T04:24:18;5.73;;;2.90;;
25497;SDS011;13406;53.380;7.226;2023-09-07T04:26:44;4.40;;;3.40;;
25497;SDS011;13406;53.380;7.226;2023-09-07T04:29:09;4.57;;;3.03;;
25497;SDS011;13406;53.380;7.226;2023-09-07T04:31:36;6.43;;;2.93;;
25497;SDS011;13406;53.380;7.226;2023-09-07T04:34:02;4.40;;;2.93;;
25497;SDS011;13406;53.380;7.226;2023-09-07T04:36:28;6.07;;;2.97;;
25497;SDS011;13406;53.380;7.226;2023-09-07T04:38:53;4.53;;;2.73;;
25497;SDS011;13406;53.380;7.226;2023-09-07T04:41:19;5.10;;;3.60;;
25497;SDS011;13406;53.380;7.226;2023-09-07T04:43:44;4.70;;;3.40;;
25497;SDS011;13406;53.380;7.226;2023-09-07T04:46:10;5.40;;;3.63;;
25497;SDS011;13406;53.380;7.226;2023-09-07T04:48:36;4.40;;;3.00;;
25497;SDS011;13406;53.380;7.226;2023-09-07T04:51:02;5.60;;;3.63;;
25497;SDS011;13406;53.380;7.226;2023-09-07T04:53:30;4.43;;;3.30;;
25497;SDS011;13406;53.380;7.226;2023-09-07T04:55:57;5.10;;;2.93;;
25497;SDS011;13406;53.380;7.226;2023-09-07T04:58:23;4.77;;;3.60;;
25497;SDS011;13406;53.380;7.226;2023-09-07T05:00:49;4.70;;;3.40;;
25497;SDS011;13406;53.380;7.226;2023-09-07T05:03:14;4.90;;;3.40;;
25497;SDS011;13406;53.380;7.226;2023-09-07T05:05:41;4.10;;;3.33;;
25497;SDS011;13406;53.380;7.226;2023-09-07T05:08:07;5.70;;;3.10;;
25497;SDS011;13406;53.380;7.226;2023-09-07T05:10:35;4.90;;;3.47;;
25497;SDS011;13406;53.380;7.226;2023-09-07T05:13:01;4.80;;;3.47;;
25497;SDS011;13406;53.380;7.226;2023-09-07T05:15:27;5.23;;;3.50;;
25497;SDS011;13406;53.380;7.226;2023-09-07T05:17:52;5.20;;;3.33;;
25497;SDS011;13406;53.380;7.226;2023-09-07T05:20:18;5.90;;;3.97;;
25497;SDS011;13406;53.380;7.226;2023-09-07T05:22:44;5.23;;;3.80;;
25497;SDS011;13406;53.380;7.226;2023-09-07T05:25:09;4.80;;;2.93;;
25497;SDS011;13406;53.380;7.226;2023-09-07T05:27:35;5.80;;;4.53;;
25497;SDS011;13406;53.380;7.226;2023-09-07T05:30:01;6.33;;;4.40;;
25497;SDS011;13406;53.380;7.226;2023-09-07T05:32:30;7.30;;;4.13;;
25497;SDS011;13406;53.380;7.226;2023-09-07T05:34:55;5.13;;;4.00;;
25497;SDS011;13406;53.380;7.226;2023-09-07T05:37:21;7.20;;;4.27;;
25497;SDS011;13406;53.380;7.226;2023-09-07T05:39:46;6.83;;;4.10;;
25497;SDS011;13406;53.380;7.226;2023-09-07T05:42:12;5.07;;;3.40;;
25497;SDS011;13406;53.380;7.226;2023-09-07T05:44:38;5.00;;;3.53;;
25497;SDS011;13406;53.380;7.226;2023-09-07T05:47:03;5.13;;;3.80;;
25497;SDS011;13406;53.380;7.226;2023-09-07T05:49:29;4.70;;;3.30;;
25497;SDS011;13406;53.380;7.226;2023-09-07T05:51:55;5.30;;;3.73;;
25497;SDS011;13406;53.380;7.226;2023-09-07T05:54:20;7.23;;;3.80;;
25497;SDS011;13406;53.380;7.226;2023-09-07T05:56:46;6.50;;;3.60;;
25497;SDS011;13406;53.380;7.226;2023-09-07T05:59:11;6.23;;;4.13;;
25497;SDS011;13406;53.380;7.226;2023-09-07T06:01:37;5.80;;;3.10;;
25497;SDS011;13406;53.380;7.226;2023-09-07T06:04:04;4.93;;;3.13;;
25497;SDS011;13406;53.380;7.226;2023-09-07T06:06:29;5.17;;;3.70;;
25497;SDS011;13406;53.380;7.226;2023-09-07T06:08:55;5.50;;;3.20;;
25497;SDS011;13406;53.380;7.226;2023-09-07T06:11:20;5.70;;;3.60;;
25497;SDS011;13406;53.380;7.226;2023-09-07T06:13:45;5.00;;;3.30;;
25497;SDS011;13406;53.380;7.226;2023-09-07T06:16:12;5.03;;;3.40;;
25497;SDS011;13406;53.380;7.226;2023-09-07T06:18:37;4.87;;;3.33;;
25497;SDS011;13406;53.380;7.226;2023-09-07T06:21:03;6.73;;;3.27;;
25497;SDS011;13406;53.380;7.226;2023-09-07T06:23:30;6.60;;;3.30;;
25497;SDS011;13406;53.380;7.226;2023-09-07T06:25:56;4.90;;;3.30;;
25497;SDS011;13406;53.380;7.226;2023-09-07T06:28:22;5.93;;;3.53;;
25497;SDS011;13406;53.380;7.226;2023-09-07T06:30:47;7.50;;;3.80;;
25497;SDS011;13406;53.380;7.226;2023-09-07T06:33:13;6.30;;;3.80;;
25497;SDS011;13406;53.380;7.226;2023-09-07T06:35:38;5.30;;;4.17;;
25497;SDS011;13406;53.380;7.226;2023-09-07T06:38:04;6.17;;;4.07;;
25497;SDS011;13406;53.380;7.226;2023-09-07T06:40:29;5.80;;;4.00;;
25497;SDS011;13406;53.380;7.226;2023-09-07T06:42:55;4.73;;;3.73;;
25497;SDS011;13406;53.380;7.226;2023-09-07T06:45:22;5.13;;;3.63;;
25497;SDS011;13406;53.380;7.226;2023-09-07T06:47:51;5.60;;;3.47;;
25497;SDS011;13406;53.380;7.226;2023-09-07T06:50:17;5.63;;;3.70;;
25497;SDS011;13406;53.380;7.226;2023-09-07T06:52:42;5.50;;;3.87;;
25497;SDS011;13406;53.380;7.226;2023-09-07T06:55:08;4.87;;;3.47;;
25497;SDS011;13406;53.380;7.226;2023-09-07T06:57:33;4.77;;;3.10;;
25497;SDS011;13406;53.380;7.226;2023-09-07T06:59:59;5.50;;;3.83;;
25497;SDS011;13406;53.380;7.226;2023-09-07T07:02:24;4.90;;;3.50;;
25497;SDS011;13406;53.380;7.226;2023-09-07T07:04:50;4.67;;;3.43;;
25497;SDS011;13406;53.380;7.226;2023-09-07T07:07:16;7.33;;;3.60;;
25497;SDS011;13406;53.380;7.226;2023-09-07T07:09:42;5.10;;;3.30;;
25497;SDS011;13406;53.380;7.226;2023-09-07T07:12:07;4.80;;;3.40;;
25497;SDS011;13406;53.380;7.226;2023-09-07T07:14:33;4.23;;;3.10;;
25497;SDS011;13406;53.380;7.226;2023-09-07T07:16:58;6.07;;;4.00;;
25497;SDS011;13406;53.380;7.226;2023-09-07T07:19:23;4.30;;;3.13;;
25497;SDS011;13406;53.380;7.226;2023-09-07T07:21:49;4.80;;;3.27;;
25497;SDS011;13406;53.380;7.226;2023-09-07T07:24:15;5.77;;;3.77;;
25497;SDS011;13406;53.380;7.226;2023-09-07T07:26:41;6.53;;;3.47;;
25497;SDS011;13406;53.380;7.226;2023-09-07T07:29:06;4.80;;;3.57;;
25497;SDS011;13406;53.380;7.226;2023-09-07T07:31:31;5.27;;;3.60;;
25497;SDS011;13406;53.380;7.226;2023-09-07T07:33:57;4.60;;;3.47;;
25497;SDS011;13406;53.380;7.226;2023-09-07T07:36:23;5.30;;;3.70;;
25497;SDS011;13406;53.380;7.226;2023-09-07T07:38:49;5.20;;;2.93;;
25497;SDS011;13406;53.380;7.226;2023-09-07T07:41:15;5.00;;;3.40;;
25497;SDS011;13406;53.380;7.226;2023-09-07T07:43:40;4.20;;;3.23;;
25497;SDS011;13406;53.380;7.226;2023-09-07T07:46:05;5.40;;;3.30;;
25497;SDS011;13406;53.380;7.226;2023-09-07T07:48:33;3.93;;;3.03;;
25497;SDS011;13406;53.380;7.226;2023-09-07T07:51:02;5.10;;;2.97;;
25497;SDS011;13406;53.380;7.226;2023-09-07T07:53:29;4.70;;;3.17;;
25497;SDS011;13406;53.380;7.226;2023-09-07T07:55:56;5.40;;;2.80;;
25497;SDS011;13406;53.380;7.226;2023-09-07T07:58:22;4.70;;;3.13;;
25497;SDS011;13406;53.380;7.226;2023-09-07T08:00:47;4.97;;;3.50;;
25497;SDS011;13406;53.380;7.226;2023-09-07T08:03:14;3.97;;;2.83;;
25497;SDS011;13406;53.380;7.226;2023-09-07T08:05:39;4.70;;;2.97;;
25497;SDS011;13406;53.380;7.226;2023-09-07T08:08:05;5.10;;;3.30;;
25497;SDS011;13406;53.380;7.226;2023-09-07T08:10:34;4.37;;;3.00;;
25497;SDS011;13406;53.380;7.226;2023-09-07T08:13:01;6.03;;;3.57;;
25497;SDS011;13406;53.380;7.226;2023-09-07T08:15:28;4.90;;;2.80;;
25497;SDS011;13406;53.380;7.226;2023-09-07T08:17:54;6.93;;;3.63;;
25497;SDS011;13406;53.380;7.226;2023-09-07T08:20:20;5.40;;;3.33;;
25497;SDS011;13406;53.380;7.226;2023-09-07T08:22:45;4.80;;;2.87;;
25497;SDS011;13406;53.380;7.226;2023-09-07T08:25:11;4.03;;;3.07;;
25497;SDS011;13406;53.380;7.226;2023-09-07T08:27:39;5.20;;;3.10;;
25497;SDS011;13406;53.380;7.226;2023-09-07T08:30:10;4.17;;;2.73;;
25497;SDS011;13406;53.380;7.226;2023-09-07T08:32:37;4.63;;;3.20;;
25497;SDS011;13406;53.380;7.226;2023-09-07T08:35:03;4.17;;;2.67;;
25497;SDS011;13406;53.380;7.226;2023-09-07T08:37:32;6.53;;;3.00;;
25497;SDS011;13406;53.380;7.226;2023-09-07T08:39:58;6.10;;;3.20;;
25497;SDS011;13406;53.380;7.226;2023-09-07T08:42:24;4.20;;;2.80;;
25497;SDS011;13406;53.380;7.226;2023-09-07T08:44:50;5.30;;;3.50;;
25497;SDS011;13406;53.380;7.226;2023-09-07T08:47:19;4.53;;;2.90;;
25497;SDS011;13406;53.380;7.226;2023-09-07T08:49:46;3.97;;;2.70;;
25497;SDS011;13406;53.380;7.226;2023-09-07T08:52:12;9.47;;;3.10;;
25497;SDS011;13406;53.380;7.226;2023-09-07T08:54:39;5.80;;;3.80;;
25497;SDS011;13406;53.380;7.226;2023-09-07T08:57:07;4.77;;;3.00;;
25497;SDS011;13406;53.380;7.226;2023-09-07T08:59:33;3.50;;;2.47;;
25497;SDS011;13406;53.380;7.226;2023-09-07T09:01:59;5.43;;;2.90;;
25497;SDS011;13406;53.380;7.226;2023-09-07T09:04:25;4.57;;;3.20;;
25497;SDS011;13406;53.380;7.226;2023-09-07T09:06:52;4.20;;;3.23;;
25497;SDS011;13406;53.380;7.226;2023-09-07T09:09:21;3.80;;;2.70;;
25497;SDS011;13406;53.380;7.226;2023-09-07T09:11:50;4.70;;;2.90;;
25497;SDS011;13406;53.380;7.226;2023-09-07T09:14:19;4.10;;;3.07;;
25497;SDS011;13406;53.380;7.226;2023-09-07T09:16:49;4.87;;;3.20;;
25497;SDS011;13406;53.380;7.226;2023-09-07T09:19:16;4.40;;;2.83;;
25497;SDS011;13406;53.380;7.226;2023-09-07T09:21:42;6.70;;;3.10;;
25497;SDS011;13406;53.380;7.226;2023-09-07T09:24:09;3.80;;;2.53;;
25497;SDS011;13406;53.380;7.226;2023-09-07T09:26:38;4.23;;;2.80;;
25497;SDS011;13406;53.380;7.226;2023-09-07T09:29:04;3.97;;;2.70;;
25497;SDS011;13406;53.380;7.226;2023-09-07T09:31:30;4.90;;;2.77;;
25497;SDS011;13406;53.380;7.226;2023-09-07T09:33:56;4.50;;;2.87;;
25497;SDS011;13406;53.380;7.226;2023-09-07T09:36:22;4.70;;;3.30;;
25497;SDS011;13406;53.380;7.226;2023-09-07T09:38:48;4.70;;;2.60;;
25497;SDS011;13406;53.380;7.226;2023-09-07T09:41:15;4.87;;;2.70;;
25497;SDS011;13406;53.380;7.226;2023-09-07T09:43:42;3.50;;;2.33;;
25497;SDS011;13406;53.380;7.226;2023-09-07T09:46:09;4.50;;;2.93;;
25497;SDS011;13406;53.380;7.226;2023-09-07T09:48:36;4.23;;;2.90;;
25497;SDS011;13406;53.380;7.226;2023-09-07T09:51:03;5.23;;;2.83;;
25497;SDS011;13406;53.380;7.226;2023-09-07T09:53:29;4.13;;;2.63;;
25497;SDS011;13406;53.380;7.226;2023-09-07T09:55:55;5.20;;;2.70;;
25497;SDS011;13406;53.380;7.226;2023-09-07T09:58:21;4.97;;;3.20;;
25497;SDS011;13406;53.380;7.226;2023-09-07T10:00:48;6.17;;;2.90;;
25497;SDS011;13406;53.380;7.226;2023-09-07T10:03:29;4.10;;;2.70;;
25497;SDS011;13406;53.380;7.226;2023-09-07T10:06:06;5.87;;;3.30;;
25497;SDS011;13406;53.380;7.226;2023-09-07T10:08:34;4.50;;;3.03;;
25497;SDS011;13406;53.380;7.226;2023-09-07T10:11:00;4.30;;;2.80;;
25497;SDS011;13406;53.380;7.226;2023-09-07T10:13:32;7.57;;;2.70;;
25497;SDS011;13406;53.380;7.226;2023-09-07T10:16:05;5.07;;;3.03;;
25497;SDS011;13406;53.380;7.226;2023-09-07T10:18:35;5.63;;;3.20;;
25497;SDS011;13406;53.380;7.226;2023-09-07T10:21:02;4.80;;;2.93;;
25497;SDS011;13406;53.380;7.226;2023-09-07T10:26:13;9.00;;;2.40;;
25497;SDS011;13406;53.380;7.226;2023-09-07T10:28:41;5.47;;;2.80;;
25497;SDS011;13406;53.380;7.226;2023-09-07T10:31:15;4.60;;;2.40;;
25497;SDS011;13406;53.380;7.226;2023-09-07T10:33:45;4.70;;;3.03;;
25497;SDS011;13406;53.380;7.226;2023-09-07T10:36:21;4.37;;;3.00;;
25497;SDS011;13406;53.380;7.226;2023-09-07T10:38:48;4.10;;;2.37;;
25497;SDS011;13406;53.380;7.226;2023-09-07T10:41:14;4.10;;;2.53;;
25497;SDS011;13406;53.380;7.226;2023-09-07T10:43:46;4.50;;;2.67;;
25497;SDS011;13406;53.380;7.226;2023-09-07T10:46:19;5.50;;;3.00;;
25497;SDS011;13406;53.380;7.226;2023-09-07T10:48:48;7.63;;;3.33;;
25497;SDS011;13406;53.380;7.226;2023-09-07T10:51:18;4.57;;;2.70;;
25497;SDS011;13406;53.380;7.226;2023-09-07T10:53:44;4.10;;;2.63;;
25497;SDS011;13406;53.380;7.226;2023-09-07T10:56:09;4.70;;;2.80;;
25497;SDS011;13406;53.380;7.226;2023-09-07T10:58:36;5.47;;;2.90;;
25497;SDS011;13406;53.380;7.226;2023-09-07T11:01:07;4.70;;;2.53;;
25497;SDS011;13406;53.380;7.226;2023-09-07T11:03:34;4.50;;;3.00;;
25497;SDS011;13406;53.380;7.226;2023-09-07T11:06:06;5.50;;;3.20;;
25497;SDS011;13406;53.380;7.226;2023-09-07T11:08:34;4.80;;;2.53;;
25497;SDS011;13406;53.380;7.226;2023-09-07T11:11:00;4.90;;;2.77;;
25497;SDS011;13406;53.380;7.226;2023-09-07T11:13:29;4.23;;;2.63;;
25497;SDS011;13406;53.380;7.226;2023-09-07T11:15:55;6.20;;;3.30;;
25497;SDS011;13406;53.380;7.226;2023-09-07T11:18:22;5.67;;;2.80;;
25497;SDS011;13406;53.380;7.226;2023-09-07T11:20:49;4.57;;;2.50;;
25497;SDS011;13406;53.380;7.226;2023-09-07T11:23:16;3.80;;;2.40;;
25497;SDS011;13406;53.380;7.226;2023-09-07T11:25:48;3.70;;;2.60;;
25497;SDS011;13406;53.380;7.226;2023-09-07T11:28:15;3.77;;;2.50;;
25497;SDS011;13406;53.380;7.226;2023-09-07T11:30:52;4.13;;;3.00;;
25497;SDS011;13406;53.380;7.226;2023-09-07T11:33:19;4.50;;;2.40;;
25497;SDS011;13406;53.380;7.226;2023-09-07T11:35:45;5.23;;;2.70;;
25497;SDS011;13406;53.380;7.226;2023-09-07T11:38:12;4.40;;;2.93;;
25497;SDS011;13406;53.380;7.226;2023-09-07T11:40:39;4.20;;;2.63;;
25497;SDS011;13406;53.380;7.226;2023-09-07T11:43:07;4.33;;;2.97;;
25497;SDS011;13406;53.380;7.226;2023-09-07T11:45:33;4.27;;;3.07;;
25497;SDS011;13406;53.380;7.226;2023-09-07T11:47:58;5.50;;;3.17;;
25497;SDS011;13406;53.380;7.226;2023-09-07T11:50:24;5.60;;;3.10;;
25497;SDS011;13406;53.380;7.226;2023-09-07T11:52:50;4.23;;;3.10;;
25497;SDS011;13406;53.380;7.226;2023-09-07T11:55:16;6.00;;;3.23;;
25497;SDS011;13406;53.380;7.226;2023-09-07T11:57:41;5.73;;;3.17;;
25497;SDS011;13406;53.380;7.226;2023-09-07T12:00:07;5.10;;;3.17;;
25497;SDS011;13406;53.380;7.226;2023-09-07T12:02:37;4.10;;;2.50;;
25497;SDS011;13406;53.380;7.226;2023-09-07T12:05:04;5.50;;;3.00;;
25497;SDS011;13406;53.380;7.226;2023-09-07T12:07:32;3.90;;;2.60;;
25497;SDS011;13406;53.380;7.226;2023-09-07T12:09:57;5.20;;;2.70;;
25497;SDS011;13406;53.380;7.226;2023-09-07T12:12:23;3.83;;;2.93;;
25497;SDS011;13406;53.380;7.226;2023-09-07T12:14:48;6.90;;;3.23;;
25497;SDS011;13406;53.380;7.226;2023-09-07T12:17:14;4.23;;;2.80;;
25497;SDS011;13406;53.380;7.226;2023-09-07T12:19:39;4.30;;;2.77;;
25497;SDS011;13406;53.380;7.226;2023-09-07T12:22:07;4.00;;;2.60;;
25497;SDS011;13406;53.380;7.226;2023-09-07T12:24:33;4.90;;;3.10;;
25497;SDS011;13406;53.380;7.226;2023-09-07T12:26:58;5.30;;;2.60;;
25497;SDS011;13406;53.380;7.226;2023-09-07T12:29:24;3.80;;;2.57;;
25497;SDS011;13406;53.380;7.226;2023-09-07T12:31:50;8.17;;;4.00;;
25497;SDS011;13406;53.380;7.226;2023-09-07T12:34:16;3.80;;;2.57;;
25497;SDS011;13406;53.380;7.226;2023-09-07T12:36:41;4.40;;;2.87;;
25497;SDS011;13406;53.380;7.226;2023-09-07T12:39:07;4.97;;;3.17;;
25497;SDS011;13406;53.380;7.226;2023-09-07T12:41:32;3.90;;;2.63;;
25497;SDS011;13406;53.380;7.226;2023-09-07T12:43:58;4.83;;;3.10;;
25497;SDS011;13406;53.380;7.226;2023-09-07T12:46:23;3.57;;;2.33;;
25497;SDS011;13406;53.380;7.226;2023-09-07T12:48:49;3.80;;;2.43;;
25497;SDS011;13406;53.380;7.226;2023-09-07T12:51:14;4.03;;;2.50;;
25497;SDS011;13406;53.380;7.226;2023-09-07T12:53:41;6.80;;;3.13;;
25497;SDS011;13406;53.380;7.226;2023-09-07T12:56:06;4.10;;;2.60;;
25497;SDS011;13406;53.380;7.226;2023-09-07T12:58:32;6.50;;;2.90;;
25497;SDS011;13406;53.380;7.226;2023-09-07T13:00:57;8.53;;;3.37;;
25497;SDS011;13406;53.380;7.226;2023-09-07T13:03:23;5.40;;;2.50;;
25497;SDS011;13406;53.380;7.226;2023-09-07T13:05:48;4.17;;;2.67;;
25497;SDS011;13406;53.380;7.226;2023-09-07T13:08:14;4.30;;;2.60;;
25497;SDS011;13406;53.380;7.226;2023-09-07T13:10:39;4.33;;;3.10;;
25497;SDS011;13406;53.380;7.226;2023-09-07T13:13:05;4.40;;;2.87;;
25497;SDS011;13406;53.380;7.226;2023-09-07T13:15:32;3.57;;;2.40;;
25497;SDS011;13406;53.380;7.226;2023-09-07T13:17:57;4.63;;;3.00;;
25497;SDS011;13406;53.380;7.226;2023-09-07T13:20:23;3.90;;;2.60;;
25497;SDS011;13406;53.380;7.226;2023-09-07T13:22:48;3.93;;;2.87;;
25497;SDS011;13406;53.380;7.226;2023-09-07T13:25:14;5.80;;;3.00;;
25497;SDS011;13406;53.380;7.226;2023-09-07T13:27:39;4.60;;;2.47;;
25497;SDS011;13406;53.380;7.226;2023-09-07T13:30:05;3.90;;;2.47;;
25497;SDS011;13406;53.380;7.226;2023-09-07T13:32:33;3.87;;;2.67;;
25497;SDS011;13406;53.380;7.226;2023-09-07T13:34:59;4.40;;;2.53;;
25497;SDS011;13406;53.380;7.226;2023-09-07T13:37:24;5.00;;;2.47;;
25497;SDS011;13406;53.380;7.226;2023-09-07T13:39:50;4.70;;;3.10;;
25497;SDS011;13406;53.380;7.226;2023-09-07T13:42:15;4.07;;;2.37;;
25497;SDS011;13406;53.380;7.226;2023-09-07T13:44:40;4.20;;;2.53;;
25497;SDS011;13406;53.380;7.226;2023-09-07T13:47:06;5.17;;;2.60;;
25497;SDS011;13406;53.380;7.226;2023-09-07T13:49:33;4.87;;;2.67;;
25497;SDS011;13406;53.380;7.226;2023-09-07T13:51:59;4.70;;;2.70;;
25497;SDS011;13406;53.380;7.226;2023-09-07T13:54:24;3.93;;;2.60;;
25497;SDS011;13406;53.380;7.226;2023-09-07T13:56:50;5.23;;;2.93;;
25497;SDS011;13406;53.380;7.226;2023-09-07T13:59:15;5.70;;;2.90;;
25497;SDS011;13406;53.380;7.226;2023-09-07T14:01:41;3.80;;;2.60;;
25497;SDS011;13406;53.380;7.226;2023-09-07T14:04:06;3.70;;;2.60;;
25497;SDS011;13406;53.380;7.226;2023-09-07T14:06:32;5.03;;;2.53;;
25497;SDS011;13406;53.380;7.226;2023-09-07T14:08:57;3.90;;;2.33;;
25497;SDS011;13406;53.380;7.226;2023-09-07T14:11:23;4.63;;;2.80;;
25497;SDS011;13406;53.380;7.226;2023-09-07T14:13:48;3.93;;;2.50;;
25497;SDS011;13406;53.380;7.226;2023-09-07T14:16:17;3.70;;;2.43;;
25497;SDS011;13406;53.380;7.226;2023-09-07T14:18:44;5.67;;;2.93;;
25497;SDS011;13406;53.380;7.226;2023-09-07T14:21:10;3.47;;;2.57;;
25497;SDS011;13406;53.380;7.226;2023-09-07T14:23:35;3.60;;;2.50;;
25497;SDS011;13406;53.380;7.226;2023-09-07T14:26:02;4.80;;;2.60;;
25497;SDS011;13406;53.380;7.226;2023-09-07T14:28:28;3.30;;;2.27;;
25497;SDS011;13406;53.380;7.226;2023-09-07T14:30:53;4.10;;;2.43;;
25497;SDS011;13406;53.380;7.226;2023-09-07T14:33:19;2.87;;;2.07;;
25497;SDS011;13406;53.380;7.226;2023-09-07T14:35:44;3.87;;;2.40;;
25497;SDS011;13406;53.380;7.226;2023-09-07T14:38:11;5.23;;;3.00;;
25497;SDS011;13406;53.380;7.226;2023-09-07T14:40:37;4.23;;;2.30;;
25497;SDS011;13406;53.380;7.226;2023-09-07T14:43:03;3.57;;;2.80;;
25497;SDS011;13406;53.380;7.226;2023-09-07T14:45:32;4.30;;;2.20;;